Time;durP1;ratioP1;P1;durP2;ratioP2;P2;SDS_P1;SDS_P2;PMS_P1;PMS_P2;Temp;Humidity;BMP_temperature;BMP_pressure;BME280_temperature;BME280_humidity;BME280_pressure;Samples;Min_cycle;Max_cycle;Signal;HPM_P1;HPM_P2
2023/08/02 00:02:23;;;;;;;3.3;1.5;;;;;;;;;;;;;
2023/08/02 00:04:48;;;;;;;2.1;1.4;;;;;;;;;;;;;
2023/08/02 00:07:15;;;;;;;1.4;1.3;;;;;;;;;;;;;
2023/08/02 00:09:40;;;;;;;1.5;1.3;;;;;;;;;;;;;
2023/08/02 00:12:07;;;;;;;3;1.6;;;;;;;;;;;;;
2023/08/02 00:14:32;;;;;;;2.9;1.5;;;;;;;;;;;;;
2023/08/02 00:16:57;;;;;;;1.9;1.5;;;;;;;;;;;;;
2023/08/02 00:19:22;;;;;;;3.6;1.4;;;;;;;;;;;;;
2023/08/02 00:21:49;;;;;;;2.3;1.5;;;;;;;;;;;;;
2023/08/02 00:24:14;;;;;;;4.2;1.7;;;;;;;;;;;;;
2023/08/02 00:26:42;;;;;;;2.9;1.3;;;;;;;;;;;;;
2023/08/02 00:29:07;;;;;;;3.1;1.6;;;;;;;;;;;;;
2023/08/02 00:31:33;;;;;;;2.6;1.5;;;;;;;;;;;;;
2023/08/02 00:33:58;;;;;;;2.5;1.3;;;;;;;;;;;;;
2023/08/02 00:36:23;;;;;;;1.9;1.4;;;;;;;;;;;;;
2023/08/02 00:38:48;;;;;;;2.4;1.5;;;;;;;;;;;;;
2023/08/02 00:41:15;;;;;;;2.2;1.4;;;;;;;;;;;;;
2023/08/02 00:43:41;;;;;;;1.7;1.4;;;;;;;;;;;;;
2023/08/02 00:46:05;;;;;;;2.1;1.5;;;;;;;;;;;;;
2023/08/02 00:48:33;;;;;;;1.8;1.5;;;;;;;;;;;;;
2023/08/02 00:50:58;;;;;;;1.8;1.5;;;;;;;;;;;;;
2023/08/02 00:53:26;;;;;;;2.4;1.6;;;;;;;;;;;;;
2023/08/02 00:55:51;;;;;;;1.8;1.6;;;;;;;;;;;;;
2023/08/02 00:58:17;;;;;;;2.5;1.8;;;;;;;;;;;;;
2023/08/02 01:00:42;;;;;;;3.8;1.6;;;;;;;;;;;;;
2023/08/02 01:03:07;;;;;;;1.6;1.5;;;;;;;;;;;;;
2023/08/02 01:05:35;;;;;;;1.8;1.3;;;;;;;;;;;;;
2023/08/02 01:08:00;;;;;;;2.5;1.6;;;;;;;;;;;;;
2023/08/02 01:10:25;;;;;;;2.3;1.5;;;;;;;;;;;;;
2023/08/02 01:12:50;;;;;;;2.1;1.4;;;;;;;;;;;;;
2023/08/02 01:15:16;;;;;;;1.8;1.4;;;;;;;;;;;;;
2023/08/02 01:17:41;;;;;;;2.5;1.5;;;;;;;;;;;;;
2023/08/02 01:20:06;;;;;;;2.2;1.5;;;;;;;;;;;;;
2023/08/02 01:22:32;;;;;;;1.9;1.6;;;;;;;;;;;;;
2023/08/02 01:25:10;;;;;;;2.9;1.5;;;;;;;;;;;;;
2023/08/02 01:27:35;;;;;;;2.1;1.7;;;;;;;;;;;;;
2023/08/02 01:30:00;;;;;;;5.7;1.9;;;;;;;;;;;;;
2023/08/02 01:32:25;;;;;;;2.2;1.5;;;;;;;;;;;;;
2023/08/02 01:34:50;;;;;;;2.4;1.7;;;;;;;;;;;;;
2023/08/02 01:37:16;;;;;;;2;1.6;;;;;;;;;;;;;
2023/08/02 01:39:41;;;;;;;2.5;1.5;;;;;;;;;;;;;
2023/08/02 01:42:07;;;;;;;2.3;1.7;;;;;;;;;;;;;
2023/08/02 01:44:33;;;;;;;2.7;1.5;;;;;;;;;;;;;
2023/08/02 01:46:59;;;;;;;2.2;1.5;;;;;;;;;;;;;
2023/08/02 01:49:24;;;;;;;1.9;1.5;;;;;;;;;;;;;
2023/08/02 01:51:50;;;;;;;2;1.5;;;;;;;;;;;;;
2023/08/02 01:54:15;;;;;;;2.2;1.6;;;;;;;;;;;;;
2023/08/02 01:56:43;;;;;;;2.7;1.4;;;;;;;;;;;;;
2023/08/02 01:59:08;;;;;;;2.2;1.6;;;;;;;;;;;;;
2023/08/02 02:01:33;;;;;;;2.2;1.5;;;;;;;;;;;;;
2023/08/02 02:03:58;;;;;;;2.4;1.7;;;;;;;;;;;;;
2023/08/02 02:06:23;;;;;;;1.9;1.5;;;;;;;;;;;;;
2023/08/02 02:08:48;;;;;;;1.9;1.6;;;;;;;;;;;;;
2023/08/02 02:11:14;;;;;;;2.3;1.7;;;;;;;;;;;;;
2023/08/02 02:13:39;;;;;;;3.1;1.6;;;;;;;;;;;;;
2023/08/02 02:16:04;;;;;;;1.9;1.6;;;;;;;;;;;;;
2023/08/02 02:18:31;;;;;;;2.1;1.7;;;;;;;;;;;;;
2023/08/02 02:20:56;;;;;;;3.1;1.5;;;;;;;;;;;;;
2023/08/02 02:23:23;;;;;;;2.6;1.5;;;;;;;;;;;;;
2023/08/02 02:25:48;;;;;;;3.2;1.7;;;;;;;;;;;;;
2023/08/02 02:28:13;;;;;;;2.7;1.5;;;;;;;;;;;;;
2023/08/02 02:30:38;;;;;;;2.5;1.4;;;;;;;;;;;;;
2023/08/02 02:33:04;;;;;;;2.2;1.6;;;;;;;;;;;;;
2023/08/02 02:35:29;;;;;;;1.9;1.5;;;;;;;;;;;;;
2023/08/02 02:37:56;;;;;;;2;1.6;;;;;;;;;;;;;
2023/08/02 02:40:21;;;;;;;2.7;1.6;;;;;;;;;;;;;
2023/08/02 02:42:46;;;;;;;2.2;1.4;;;;;;;;;;;;;
2023/08/02 02:45:16;;;;;;;1.9;1.4;;;;;;;;;;;;;
2023/08/02 02:47:44;;;;;;;2.8;1.6;;;;;;;;;;;;;
2023/08/02 02:50:09;;;;;;;2.9;1.7;;;;;;;;;;;;;
2023/08/02 02:52:40;;;;;;;1.7;1.5;;;;;;;;;;;;;
2023/08/02 02:55:02;;;;;;;5;1.6;;;;;;;;;;;;;
2023/08/02 02:57:28;;;;;;;1.7;1.5;;;;;;;;;;;;;
2023/08/02 02:59:53;;;;;;;2.4;1.5;;;;;;;;;;;;;
2023/08/02 03:02:20;;;;;;;3.3;1.6;;;;;;;;;;;;;
2023/08/02 03:04:45;;;;;;;3.4;1.4;;;;;;;;;;;;;
2023/08/02 03:07:11;;;;;;;2.2;1.3;;;;;;;;;;;;;
2023/08/02 03:09:36;;;;;;;4.5;1.9;;;;;;;;;;;;;
2023/08/02 03:12:02;;;;;;;2.6;1.8;;;;;;;;;;;;;
2023/08/02 03:14:27;;;;;;;2.2;1.8;;;;;;;;;;;;;
2023/08/02 03:16:53;;;;;;;2.2;1.6;;;;;;;;;;;;;
2023/08/02 03:19:18;;;;;;;2;1.6;;;;;;;;;;;;;
2023/08/02 03:21:43;;;;;;;2.1;1.4;;;;;;;;;;;;;
2023/08/02 03:24:08;;;;;;;3.1;1.6;;;;;;;;;;;;;
2023/08/02 03:26:34;;;;;;;3.1;2;;;;;;;;;;;;;
2023/08/02 03:28:59;;;;;;;1.7;1.6;;;;;;;;;;;;;
2023/08/02 03:31:26;;;;;;;2.8;1.9;;;;;;;;;;;;;
2023/08/02 03:33:51;;;;;;;2.4;1.9;;;;;;;;;;;;;
2023/08/02 03:36:16;;;;;;;2.3;1.7;;;;;;;;;;;;;
2023/08/02 03:38:41;;;;;;;5.1;2;;;;;;;;;;;;;
2023/08/02 03:41:06;;;;;;;1.9;1.4;;;;;;;;;;;;;
2023/08/02 03:43:31;;;;;;;3.1;1.6;;;;;;;;;;;;;
2023/08/02 03:45:56;;;;;;;1.5;1.3;;;;;;;;;;;;;
2023/08/02 03:48:44;;;;;;;2.5;1.7;;;;;;;;;;;;;
2023/08/02 03:51:09;;;;;;;3.6;1.4;;;;;;;;;;;;;
2023/08/02 03:53:34;;;;;;;2.5;1.8;;;;;;;;;;;;;
2023/08/02 03:56:01;;;;;;;2.8;1.7;;;;;;;;;;;;;
2023/08/02 03:58:26;;;;;;;2.2;1.5;;;;;;;;;;;;;
2023/08/02 04:00:52;;;;;;;2.2;1.6;;;;;;;;;;;;;
2023/08/02 04:03:27;;;;;;;1.7;1.5;;;;;;;12.55;98.86621;930.2665;;;;
2023/08/02 04:06:35;;;;;;;2;1.6;;;;;;;12.34;99.49512;930.2238;;;;
2023/08/02 04:08:56;;;;;;;1.9;1.7;;;;;;;12.4;100;930.1479;;;;
2023/08/02 04:11:28;;;;;;;5.7;1.6;;;;;;;12.43;99.83887;930.1688;;;;
2023/08/02 04:14:00;;;;;;;2.7;1.5;;;;;;;12.29;100;930.2299;;;;
2023/08/02 04:16:31;;;;;;;2.1;1.6;;;;;;;12.21;100;930.2352;;;;
2023/08/02 04:18:56;;;;;;;3;1.8;;;;;;;12.39;100;930.1155;;;;
2023/08/02 04:21:21;;;;;;;3.1;1.4;;;;;;;12.44;100;930.1177;;;;
2023/08/02 04:23:51;;;;;;;1.9;1.4;;;;;;;12.44;100;930.1376;;;;
2023/08/02 04:29:57;;;;;;;4.4;2;;;;;;;12.48;100;930.1739;;;;
2023/08/02 04:32:26;;;;;;;2.4;1.7;;;;;;;12.49;100;930.1106;;;;
2023/08/02 04:34:51;;;;;;;3.3;1.5;;;;;;;12.51;100;930.0562;;;;
2023/08/02 04:37:21;;;;;;;2;1.8;;;;;;;12.68;99.4248;930.1111;;;;
2023/08/02 04:39:50;;;;;;;1.8;1.1;;;;;;;12.53;99.68848;929.9959;;;;
2023/08/02 04:42:15;;;;;;;2.5;2;;;;;;;12.73;99.84863;929.8884;;;;
2023/08/02 04:44:42;;;;;;;2.9;1.5;;;;;;;13.02;97.99707;929.8574;;;;
2023/08/02 04:47:08;;;;;;;1.5;1.4;;;;;;;12.83;99.10254;929.8101;;;;
2023/08/02 04:49:34;;;;;;;3.5;2;;;;;;;12.8;98.93555;929.882;;;;
2023/08/02 04:51:59;;;;;;;2;1.6;;;;;;;12.88;98.72461;929.8381;;;;
2023/08/02 04:54:27;;;;;;;2.8;1.7;;;;;;;12.87;99.31934;929.7784;;;;
2023/08/02 04:56:55;;;;;;;2.5;1.3;;;;;;;13.09;98.98926;929.6981;;;;
2023/08/02 05:01:45;;;;;;;3;1.4;;;;;;;13.22;97.60547;929.5027;;;;
2023/08/02 05:04:13;;;;;;;1.7;1.4;;;;;;;13.24;97.47363;929.4711;;;;
2023/08/02 05:06:38;;;;;;;1.6;1.4;;;;;;;13.29;96.98926;929.4856;;;;
2023/08/02 05:09:04;;;;;;;2.5;1.5;;;;;;;13.4;97.17676;929.4199;;;;
2023/08/02 05:11:27;;;;;;;2.6;1.7;;;;;;;13.35;97.13184;929.495;;;;
2023/08/02 05:13:58;;;;;;;2.8;1.9;;;;;;;13.25;98.31445;929.5478;;;;
2023/08/02 05:16:28;;;;;;;4.6;1.7;;;;;;;13.29;98.41406;929.5496;;;;
2023/08/02 05:18:53;;;;;;;1.8;1.7;;;;;;;13.33;98.62012;929.6328;;;;
2023/08/02 05:21:24;;;;;;;2.1;1.5;;;;;;;13.42;99.35254;929.5717;;;;
2023/08/02 05:23:48;;;;;;;1.9;1.6;;;;;;;13.57;98.48926;929.5999;;;;
2023/08/02 05:26:18;;;;;;;3;1.7;;;;;;;13.66;96.98047;929.6851;;;;
2023/08/02 05:29:08;;;;;;;3.2;1.7;;;;;;;13.51;97.15234;929.6417;;;;
2023/08/02 05:31:34;;;;;;;3.9;2;;;;;;;13.34;98.23145;929.6023;;;;
2023/08/02 05:33:59;;;;;;;4.6;2.2;;;;;;;13.34;97.8291;929.6223;;;;
2023/08/02 05:36:29;;;;;;;2.9;2.6;;;;;;;13.28;98.28613;929.5705;;;;
2023/08/02 05:38:55;;;;;;;3.1;2.2;;;;;;;13.2;98.46289;929.501;;;;
2023/08/02 05:41:19;;;;;;;11.5;10.6;;;;;;;13.32;97.99512;929.5316;;;;
2023/08/02 05:43:44;;;;;;;3.1;2.7;;;;;;;13.2;97.10742;929.3907;;;;
2023/08/02 05:46:10;;;;;;;4.5;4.2;;;;;;;13.1;98.60352;929.4127;;;;
2023/08/02 05:48:35;;;;;;;4.4;4;;;;;;;13.42;98.54883;929.3262;;;;
2023/08/02 05:51:02;;;;;;;5.1;2.3;;;;;;;13.53;97.04395;929.3262;;;;
2023/08/02 05:53:31;;;;;;;3.2;1.6;;;;;;;13.73;96.60547;929.3239;;;;
2023/08/02 05:56:04;;;;;;;2.8;1.9;;;;;;;13.93;95.17383;929.3672;;;;
2023/08/02 05:58:34;;;;;;;2.1;1.7;;;;;;;14.03;94.70117;929.3729;;;;
2023/08/02 06:00:59;;;;;;;2.6;1.9;;;;;;;14.07;94.04492;929.4625;;;;
2023/08/02 06:03:26;;;;;;;2;1.6;;;;;;;14.12;94.58398;929.3864;;;;
2023/08/02 06:05:52;;;;;;;1.6;1.5;;;;;;;14.03;95.01367;929.4144;;;;
2023/08/02 06:08:21;;;;;;;1.7;1.6;;;;;;;13.91;96.3457;929.3875;;;;
2023/08/02 06:10:46;;;;;;;2;1.4;;;;;;;14;96.19336;929.4514;;;;
2023/08/02 06:13:17;;;;;;;1.8;1.4;;;;;;;14.1;96.66406;929.3603;;;;
2023/08/02 06:15:46;;;;;;;3.2;1.5;;;;;;;14.19;96.02539;929.2778;;;;
2023/08/02 06:18:16;;;;;;;3;1.4;;;;;;;14.29;95.81934;929.3066;;;;
2023/08/02 06:20:41;;;;;;;2.4;1.4;;;;;;;14.22;95.96484;929.3817;;;;
2023/08/02 06:23:09;;;;;;;1.6;1.2;;;;;;;14.42;95.84961;929.3323;;;;
2023/08/02 06:25:34;;;;;;;3.2;1.7;;;;;;;14.53;95.02051;929.3488;;;;
2023/08/02 06:28:04;;;;;;;1.4;1.3;;;;;;;14.72;95.03809;929.3268;;;;
2023/08/02 06:30:29;;;;;;;2.5;1.4;;;;;;;14.72;93.40137;929.3428;;;;
2023/08/02 06:32:57;;;;;;;1.6;1.3;;;;;;;14.78;92.61719;929.3128;;;;
2023/08/02 06:35:22;;;;;;;1.7;1.4;;;;;;;14.92;90.99902;929.3123;;;;
2023/08/02 06:37:48;;;;;;;2.5;1.6;;;;;;;15.12;90.82129;929.317;;;;
2023/08/02 06:40:13;;;;;;;2.4;1.6;;;;;;;15.27;90.87402;929.2467;;;;
2023/08/02 06:42:42;;;;;;;2.5;1.6;;;;;;;15.32;90.76953;929.2231;;;;
2023/08/02 06:45:07;;;;;;;2;1.4;;;;;;;15.43;91.74121;929.2191;;;;
2023/08/02 06:47:34;;;;;;;3.3;1.6;;;;;;;15.4;91.49121;929.2742;;;;
2023/08/02 06:49:59;;;;;;;3.2;1.6;;;;;;;15.35;93.81348;929.2327;;;;
2023/08/02 06:52:27;;;;;;;2.2;1.5;;;;;;;15.39;96.11914;929.1636;;;;
2023/08/02 06:54:52;;;;;;;2.6;1.8;;;;;;;15.54;94.52441;929.1331;;;;
2023/08/02 06:57:22;;;;;;;3.5;1.9;;;;;;;15.58;94.91309;929.2001;;;;
2023/08/02 06:59:45;;;;;;;4.1;1.8;;;;;;;15.77;95.01172;929.1962;;;;
2023/08/02 07:02:12;;;;;;;2.5;1.7;;;;;;;16.05;93.98438;929.1801;;;;
2023/08/02 07:04:37;;;;;;;2.1;1.7;;;;;;;16.06;91.89453;929.1605;;;;
2023/08/02 07:07:04;;;;;;;1.8;1.6;;;;;;;15.99;91.56738;929.1273;;;;
2023/08/02 07:09:29;;;;;;;2.3;1.6;;;;;;;15.97;92.11914;929.1415;;;;
2023/08/02 07:11:54;;;;;;;4.2;1.9;;;;;;;16.02;93.44824;929.0988;;;;
2023/08/02 07:14:21;;;;;;;2.7;1.5;;;;;;;16.19;92.34961;929.0759;;;;
2023/08/02 07:16:46;;;;;;;2.7;1.5;;;;;;;16.3;93.33496;929.1294;;;;
2023/08/02 07:19:12;;;;;;;3.2;1.5;;;;;;;16.23;94.01367;929.1264;;;;
2023/08/02 07:21:37;;;;;;;4.3;1.5;;;;;;;16.4;92.36035;929.0751;;;;
2023/08/02 07:24:04;;;;;;;2.7;1.7;;;;;;;16.51;93.29785;929.0073;;;;
2023/08/02 07:26:29;;;;;;;2.1;1.4;;;;;;;16.7;92.44629;929.1141;;;;
2023/08/02 07:28:56;;;;;;;2;1.4;;;;;;;16.55;93.03906;929.1244;;;;
2023/08/02 07:31:21;;;;;;;1.8;1.3;;;;;;;16.77;90.18945;929.2153;;;;
2023/08/02 07:33:47;;;;;;;2;1.5;;;;;;;16.88;91.32422;929.185;;;;
2023/08/02 07:36:13;;;;;;;3.4;1.4;;;;;;;17.07;89.34863;929.1731;;;;
2023/08/02 07:38:42;;;;;;;2.7;1.4;;;;;;;17.04;89.93457;929.1072;;;;
2023/08/02 07:41:07;;;;;;;1.5;1.3;;;;;;;17.34;88.08008;929.1072;;;;
2023/08/02 07:43:34;;;;;;;2.8;1.2;;;;;;;17.27;83.75195;929.0959;;;;
2023/08/02 07:45:59;;;;;;;1.2;1.1;;;;;;;17.4;84.77539;929.1167;;;;
2023/08/02 07:48:25;;;;;;;2.4;2.2;;;;;;;17.25;85.25586;929.1528;;;;
2023/08/02 07:50:50;;;;;;;2.3;2.1;;;;;;;17.21;86.12988;929.046;;;;
2023/08/02 07:53:21;;;;;;;4;1.6;;;;;;;17.15;87.23242;929.153;;;;
2023/08/02 07:55:50;;;;;;;1.9;1.5;;;;;;;17.05;89.80859;929.1842;;;;
2023/08/02 07:58:13;;;;;;;2.1;1.4;;;;;;;16.76;90.98926;929.1141;;;;
2023/08/02 08:00:39;;;;;;;2.5;1.6;;;;;;;16.71;92.90039;929.0619;;;;
2023/08/02 08:03:04;;;;;;;1.6;1.4;;;;;;;16.75;92.09668;929.0203;;;;
2023/08/02 08:05:29;;;;;;;1.7;1.6;;;;;;;16.73;93.40332;929.0104;;;;
2023/08/02 08:07:56;;;;;;;3.2;1.7;;;;;;;16.86;92.97852;929.08;;;;
2023/08/02 08:10:21;;;;;;;2.6;1.9;;;;;;;16.91;92.82617;929.0585;;;;
2023/08/02 08:12:47;;;;;;;2.7;1.9;;;;;;;17.05;92.85645;929.0234;;;;
2023/08/02 08:15:15;;;;;;;1.7;1.5;;;;;;;17.09;93.20996;928.9506;;;;
2023/08/02 08:17:40;;;;;;;2.8;1.8;;;;;;;17.13;94.85645;928.8969;;;;
2023/08/02 08:20:05;;;;;;;2;1.4;;;;;;;17.17;92.39453;928.8113;;;;
2023/08/02 08:22:30;;;;;;;2.9;1.6;;;;;;;16.94;93.74707;928.9242;;;;
2023/08/02 08:24:58;;;;;;;2.1;1.3;;;;;;;17.05;93.83984;928.9197;;;;
2023/08/02 08:27:23;;;;;;;2.7;1.6;;;;;;;17.15;93.97852;928.9608;;;;
2023/08/02 08:29:48;;;;;;;2.6;1.6;;;;;;;17.35;93.03613;929.0096;;;;
2023/08/02 08:32:16;;;;;;;2.5;1.4;;;;;;;17.17;91.31641;928.9151;;;;
2023/08/02 08:34:42;;;;;;;2.6;1.8;;;;;;;16.99;92.28516;928.9509;;;;
2023/08/02 08:37:09;;;;;;;1.9;1.6;;;;;;;16.86;93.33594;928.8688;;;;
2023/08/02 08:39:34;;;;;;;2.3;1.6;;;;;;;17.05;92.32324;928.7635;;;;
2023/08/02 08:42:01;;;;;;;2.1;1.7;;;;;;;16.94;93.42285;928.7168;;;;
2023/08/02 08:44:25;;;;;;;1.7;1.5;;;;;;;17.08;93.08301;928.7812;;;;
2023/08/02 08:47:00;;;;;;;1.4;1.3;;;;;;;16.98;92.54004;928.6875;;;;
2023/08/02 08:49:21;;;;;;;2;1.4;;;;;;;17.05;92.45117;928.6727;;;;
2023/08/02 08:51:51;;;;;;;1.7;1.4;;;;;;;17.26;92.28613;928.7277;;;;
2023/08/02 08:54:17;;;;;;;1.9;1.5;;;;;;;17.48;92.99316;928.46;;;;
2023/08/02 08:56:44;;;;;;;2.5;1.5;;;;;;;17.54;91.77637;928.4034;;;;
2023/08/02 08:59:09;;;;;;;2;1.4;;;;;;;17.65;93.25;928.4771;;;;
2023/08/02 09:01:38;;;;;;;3.6;1.3;;;;;;;17.64;89.56934;928.4179;;;;
2023/08/02 09:04:03;;;;;;;1.2;1.1;;;;;;;17.91;86.94141;928.4641;;;;
2023/08/02 09:06:28;;;;;;;2.6;1.2;;;;;;;18.1;88.59375;928.4185;;;;
2023/08/02 09:08:54;;;;;;;1.8;1.4;;;;;;;18.34;84.60742;928.2361;;;;
2023/08/02 09:11:19;;;;;;;2.2;1.5;;;;;;;18.69;86.65332;928.1463;;;;
2023/08/02 09:13:47;;;;;;;1.6;1.3;;;;;;;18.87;84.75684;928.1083;;;;
2023/08/02 09:16:12;;;;;;;1.8;1.4;;;;;;;18.89;86.0293;928.1247;;;;
2023/08/02 09:18:40;;;;;;;2;1.3;;;;;;;18.88;82.39746;928.0223;;;;
2023/08/02 09:21:06;;;;;;;2;1.2;;;;;;;19.08;82.70117;928.0037;;;;
2023/08/02 09:23:32;;;;;;;1.4;1.3;;;;;;;18.89;80.37305;928.0536;;;;
2023/08/02 09:25:58;;;;;;;1.6;1.3;;;;;;;18.76;78.91895;928.0502;;;;
2023/08/02 09:28:23;;;;;;;1.7;1.2;;;;;;;18.99;81.00977;928.1229;;;;
2023/08/02 09:30:49;;;;;;;2.2;1.3;;;;;;;19.15;80.80469;927.9606;;;;
2023/08/02 09:33:18;;;;;;;1.6;1.4;;;;;;;19.26;78.92578;927.8967;;;;
2023/08/02 09:35:43;;;;;;;4.6;1.4;;;;;;;19.43;76.60254;927.8739;;;;
2023/08/02 09:38:10;;;;;;;1.7;1.2;;;;;;;19.62;76.6709;927.8777;;;;
2023/08/02 09:40:35;;;;;;;1.9;1.2;;;;;;;19.88;78.37207;927.851;;;;
2023/08/02 09:43:04;;;;;;;2;1.4;;;;;;;20.01;76.60938;927.8412;;;;
2023/08/02 09:45:28;;;;;;;2;1.6;;;;;;;19.9;75.90234;927.8074;;;;
2023/08/02 09:47:54;;;;;;;2;1.3;;;;;;;19.77;76.10254;927.8197;;;;
2023/08/02 09:50:21;;;;;;;1.5;1.4;;;;;;;19.79;74.74023;927.723;;;;
2023/08/02 09:52:45;;;;;;;2.6;1.5;;;;;;;19.97;76.61719;927.7587;;;;
2023/08/02 09:55:13;;;;;;;2.3;1.4;;;;;;;19.99;74.72949;927.7078;;;;
2023/08/02 09:57:38;;;;;;;2.5;1.3;;;;;;;20.13;75.48828;927.6559;;;;
2023/08/02 10:00:06;;;;;;;3.4;1.9;;;;;;;19.96;73.11328;927.5494;;;;
2023/08/02 10:02:32;;;;;;;2.7;1.8;;;;;;;20.21;75.77051;927.4956;;;;
2023/08/02 10:04:57;;;;;;;2.3;1.6;;;;;;;21.02;74.24902;927.3722;;;;
2023/08/02 10:07:22;;;;;;;1.4;1.3;;;;;;;21.45;69.00586;927.3515;;;;
2023/08/02 10:09:47;;;;;;;1.8;1.4;;;;;;;21.87;68.60156;927.2545;;;;
2023/08/02 10:12:16;;;;;;;2.2;1.4;;;;;;;22.02;68.49609;927.1995;;;;
2023/08/02 10:14:43;;;;;;;1.5;1.3;;;;;;;21.85;67.96582;927.1446;;;;
2023/08/02 10:17:10;;;;;;;1.3;1.2;;;;;;;21.76;68.69141;927.041;;;;
2023/08/02 10:19:35;;;;;;;1.9;1.7;;;;;;;21.59;67.54004;926.9612;;;;
2023/08/02 10:22:00;;;;;;;1.4;1.3;;;;;;;21.58;69.41211;926.8663;;;;
2023/08/02 10:24:25;;;;;;;1.5;1.3;;;;;;;22.22;66.63965;926.8387;;;;
2023/08/02 10:26:53;;;;;;;1.2;1.1;;;;;;;23.08;63.24414;926.834;;;;
2023/08/02 10:29:19;;;;;;;1.4;1.3;;;;;;;23.81;61.57031;926.7079;;;;
2023/08/02 10:31:44;;;;;;;1.4;1.1;;;;;;;24.59;57.02246;926.5637;;;;
2023/08/02 10:34:11;;;;;;;1.3;1.2;;;;;;;25.15;55.11035;926.5087;;;;
2023/08/02 10:36:36;;;;;;;1.1;1;;;;;;;24.68;55.53516;926.5331;;;;
2023/08/02 10:39:01;;;;;;;1.9;1.3;;;;;;;25.69;55.97949;926.498;;;;
2023/08/02 10:41:27;;;;;;;1.7;1.2;;;;;;;25.77;56.77051;926.5087;;;;
2023/08/02 10:43:52;;;;;;;1.3;1.2;;;;;;;26.3;56.02148;926.3663;;;;
2023/08/02 10:46:18;;;;;;;2.1;1.2;;;;;;;25.46;52.11328;926.2617;;;;
2023/08/02 10:48:49;;;;;;;1.3;1.2;;;;;;;26.02;53.50293;926.1689;;;;
2023/08/02 10:51:15;;;;;;;1.1;1;;;;;;;26.51;49.62988;925.9733;;;;
2023/08/02 10:53:42;;;;;;;1.3;1;;;;;;;26.78;48.46387;925.9139;;;;
2023/08/02 10:56:12;;;;;;;1.1;1;;;;;;;27.21;49.11523;925.8577;;;;
2023/08/02 10:58:32;;;;;;;2;0.8;;;;;;;27.94;47.46094;925.7559;;;;
2023/08/02 11:01:00;;;;;;;1.2;1;;;;;;;28.78;48.26367;925.6934;;;;
2023/08/02 11:03:25;;;;;;;1.2;1;;;;;;;28.87;45.25;925.6559;;;;
2023/08/02 11:05:50;;;;;;;1;0.9;;;;;;;28.76;44.70313;925.5769;;;;
2023/08/02 11:08:17;;;;;;;1;1;;;;;;;29.65;44.05273;925.4973;;;;
2023/08/02 11:10:42;;;;;;;1.5;1;;;;;;;29.37;43.21484;925.4703;;;;
2023/08/02 11:13:10;;;;;;;1.1;1;;;;;;;29.14;43.33594;925.4724;;;;
2023/08/02 11:15:35;;;;;;;1;0.9;;;;;;;28.93;43.14844;925.429;;;;
2023/08/02 11:18:00;;;;;;;1.3;1;;;;;;;29.76;41.67773;925.2361;;;;
2023/08/02 11:20:28;;;;;;;1.7;1.4;;;;;;;30.55;40.04297;925.1824;;;;
2023/08/02 11:22:52;;;;;;;0.9;0.9;;;;;;;30.43;41.03516;925.2089;;;;
2023/08/02 11:25:17;;;;;;;1.1;1;;;;;;;30.33;42.04102;925.1078;;;;
2023/08/02 11:27:47;;;;;;;1.7;0.9;;;;;;;30.18;41.38184;924.9978;;;;
2023/08/02 11:30:16;;;;;;;1;0.9;;;;;;;29.94;40.90723;924.9005;;;;
2023/08/02 11:32:43;;;;;;;1;0.9;;;;;;;31.2;40.77051;924.9194;;;;
2023/08/02 11:35:08;;;;;;;1.1;1;;;;;;;32.02;37.56055;924.8677;;;;
2023/08/02 11:37:33;;;;;;;1.3;1.1;;;;;;;31.37;38.59473;924.8477;;;;
2023/08/02 11:39:58;;;;;;;1.3;1;;;;;;;30.3;41.22656;924.8876;;;;
2023/08/02 11:42:23;;;;;;;1.2;1.1;;;;;;;31.57;40.88672;924.769;;;;
2023/08/02 11:45:21;;;;;;;1.2;1.1;;;;;;;31.42;39.15039;924.6855;;;;
2023/08/02 11:47:47;;;;;;;1;0.9;;;;;;;30.52;42.23828;924.5491;;;;
2023/08/02 11:50:16;;;;;;;0.8;0.8;;;;;;;29.66;41.13281;924.4753;;;;
2023/08/02 11:52:41;;;;;;;1.5;0.9;;;;;;;29.91;42.13477;924.5229;;;;
2023/08/02 11:55:06;;;;;;;1.7;1;;;;;;;30.05;41.68066;924.4216;;;;
2023/08/02 11:57:47;;;;;;;1.2;1;;;;;;;30.22;42.10254;924.3582;;;;
2023/08/02 12:00:12;;;;;;;0.7;0.7;;;;;;;30.13;45.99707;924.2786;;;;
2023/08/02 12:02:39;;;;;;;1.2;1.1;;;;;;;29.78;46.51074;924.1819;;;;
2023/08/02 12:05:08;;;;;;;2.8;1.1;;;;;;;30.01;42.15527;924.1361;;;;
2023/08/02 12:07:29;;;;;;;1.3;1.1;;;;;;;28.96;41.42578;924.0872;;;;
2023/08/02 12:10:01;;;;;;;2.2;1.1;;;;;;;28.93;43.49414;924.0428;;;;
2023/08/02 12:12:24;;;;;;;1.2;1.1;;;;;;;29.09;45.73633;924.0391;;;;
2023/08/02 12:14:52;;;;;;;1.5;1;;;;;;;29.73;44.26367;923.9888;;;;
2023/08/02 12:17:18;;;;;;;1.1;1;;;;;;;29.88;43.12012;923.9114;;;;
2023/08/02 12:19:44;;;;;;;1.2;1.1;;;;;;;29.85;43.26074;923.9246;;;;
2023/08/02 12:22:09;;;;;;;1.1;1;;;;;;;30.03;42.35938;923.8617;;;;
2023/08/02 12:24:38;;;;;;;1.1;1;;;;;;;30.1;43.91797;923.9048;;;;
2023/08/02 12:27:03;;;;;;;1.7;1;;;;;;;30.08;43.58203;923.8239;;;;
2023/08/02 12:29:34;;;;;;;1.7;1.1;;;;;;;29.9;43.40918;923.8605;;;;
2023/08/02 12:31:57;;;;;;;1.3;1.2;;;;;;;30.04;42.31348;923.8605;;;;
2023/08/02 12:34:27;;;;;;;1.5;1;;;;;;;30.39;41.72461;923.8555;;;;
2023/08/02 12:36:57;;;;;;;1;0.9;;;;;;;30.11;42.02148;923.7364;;;;
2023/08/02 12:39:22;;;;;;;1.2;1;;;;;;;30.17;41.59668;923.6641;;;;
2023/08/02 12:41:47;;;;;;;1.7;1.1;;;;;;;29.85;43.86914;923.7101;;;;
2023/08/02 12:44:13;;;;;;;1.3;1.2;;;;;;;29;45.91797;923.6959;;;;
2023/08/02 12:46:38;;;;;;;1.3;1;;;;;;;28.62;48.16309;923.6895;;;;
2023/08/02 12:52:03;;;;;;;1.4;1.1;;;;;;;28.86;48.67676;923.6807;;;;
2023/08/02 12:54:23;;;;;;;1.3;0.9;;;;;;;28.69;47.27832;923.5701;;;;
2023/08/02 12:56:48;;;;;;;1.4;1.3;;;;;;;28.61;47.8291;923.6161;;;;
2023/08/02 12:59:24;;;;;;;1.8;1;;;;;;;28.77;47.73926;923.6099;;;;
2023/08/02 13:01:53;;;;;;;2.7;1.1;;;;;;;28.69;50.25293;923.5826;;;;
2023/08/02 13:04:18;;;;;;;1.1;1;;;;;;;29.01;47.95508;923.5348;;;;
2023/08/02 13:06:49;;;;;;;1.2;1.1;;;;;;;28.6;50.25488;923.4684;;;;
2023/08/02 13:09:19;;;;;;;1;0.8;;;;;;;29.02;50.08789;923.5385;;;;
2023/08/02 13:11:45;;;;;;;2.1;1.2;;;;;;;29.04;51.67285;923.5206;;;;
2023/08/02 13:14:13;;;;;;;2;1.3;;;;;;;29.12;50.59863;923.4992;;;;
2023/08/02 13:16:38;;;;;;;1.3;1.2;;;;;;;29.14;49.82617;923.3985;;;;
2023/08/02 13:19:07;;;;;;;1.4;1.3;;;;;;;28.75;50.46094;923.3836;;;;
2023/08/02 13:21:32;;;;;;;1.5;1.2;;;;;;;28.38;50.94336;923.5044;;;;
2023/08/02 13:24:00;;;;;;;2.8;1.2;;;;;;;27.92;54.69238;923.45;;;;
2023/08/02 13:26:25;;;;;;;1.9;1.4;;;;;;;27.54;55.67871;923.4689;;;;
2023/08/02 13:28:55;;;;;;;1.6;1.5;;;;;;;27.48;56.01465;923.4662;;;;
2023/08/02 13:31:20;;;;;;;1.4;1.2;;;;;;;27.68;56.76367;923.4003;;;;
2023/08/02 13:33:49;;;;;;;2.5;1.5;;;;;;;27.85;57.12988;923.3264;;;;
2023/08/02 13:36:13;;;;;;;1.2;1.1;;;;;;;27.45;58.62012;923.4037;;;;
2023/08/02 13:38:38;;;;;;;1.5;1.2;;;;;;;27.3;59.12207;923.4041;;;;
2023/08/02 13:41:06;;;;;;;1.2;1.1;;;;;;;27.02;58.21973;923.3606;;;;
2023/08/02 13:43:31;;;;;;;1.4;1.3;;;;;;;26.81;60.64648;923.317;;;;
2023/08/02 13:45:57;;;;;;;1.3;1.2;;;;;;;26.55;62.1377;923.3031;;;;
2023/08/02 13:48:31;;;;;;;1.6;1.1;;;;;;;26.52;62.45508;923.2312;;;;
2023/08/02 13:50:56;;;;;;;2;1.1;;;;;;;26.43;63.22266;923.2751;;;;
2023/08/02 13:53:21;;;;;;;1.5;1.2;;;;;;;26.41;63.82324;923.2626;;;;
2023/08/02 13:55:49;;;;;;;1.6;1.1;;;;;;;26.9;62.19824;923.2332;;;;
2023/08/02 13:58:14;;;;;;;1.7;1.2;;;;;;;27.01;61.45508;923.1614;;;;
2023/08/02 14:00:43;;;;;;;1.3;1.2;;;;;;;26.82;60.20996;923.1783;;;;
2023/08/02 14:03:09;;;;;;;1.3;1.2;;;;;;;27;59.55762;923.1949;;;;
2023/08/02 14:05:37;;;;;;;1.3;1.2;;;;;;;27.02;59.00391;923.1635;;;;
2023/08/02 14:08:09;;;;;;;1.5;1.4;;;;;;;26.9;59.48438;923.1008;;;;
2023/08/02 14:10:37;;;;;;;1.3;1.2;;;;;;;26.95;60.25;923.1649;;;;
2023/08/02 14:13:02;;;;;;;1.6;1.4;;;;;;;27.29;58.90918;923.15;;;;
2023/08/02 14:15:31;;;;;;;1.7;1.3;;;;;;;27.35;59.04785;923.07;;;;
2023/08/02 14:18:02;;;;;;;1.3;1.2;;;;;;;27.17;59.44922;923.0897;;;;
2023/08/02 14:20:33;;;;;;;1.3;1.2;;;;;;;27.3;58.88477;923.131;;;;
2023/08/02 14:23:01;;;;;;;1.5;1.2;;;;;;;27.32;58.81738;923.1088;;;;
2023/08/02 14:25:26;;;;;;;1.9;1.3;;;;;;;27.34;59.55566;922.9911;;;;
2023/08/02 14:27:57;;;;;;;1.9;1.3;;;;;;;27.47;59.34766;922.9105;;;;
2023/08/02 14:30:21;;;;;;;2;1.5;;;;;;;27.45;58.75098;922.9144;;;;
2023/08/02 14:32:49;;;;;;;2.2;1.3;;;;;;;27.49;58.29297;922.9239;;;;
2023/08/02 14:35:16;;;;;;;1.3;1.2;;;;;;;27.43;58.96191;922.8702;;;;
2023/08/02 14:37:45;;;;;;;1.3;1.2;;;;;;;27.17;59.72266;922.8597;;;;
2023/08/02 14:40:09;;;;;;;1.8;1.4;;;;;;;27.22;59.91895;922.8256;;;;
2023/08/02 14:42:36;;;;;;;1.3;1.1;;;;;;;27.08;60.12598;922.7636;;;;
2023/08/02 14:45:01;;;;;;;1.5;1.2;;;;;;;27.01;60.44824;922.7111;;;;
2023/08/02 14:47:30;;;;;;;1.3;1.2;;;;;;;27.05;61.75879;922.7551;;;;
2023/08/02 14:49:55;;;;;;;1.3;1.2;;;;;;;26.8;61.55762;922.6648;;;;
2023/08/02 14:52:24;;;;;;;1.6;1.4;;;;;;;26.75;62.32031;922.5903;;;;
2023/08/02 14:54:48;;;;;;;2.9;1.2;;;;;;;26.8;61.29688;922.618;;;;
2023/08/02 14:57:16;;;;;;;1.5;1.4;;;;;;;26.63;60.06445;922.5522;;;;
2023/08/02 14:59:42;;;;;;;1.7;1.4;;;;;;;26.59;60.24902;922.6066;;;;
2023/08/02 15:02:11;;;;;;;1.7;1.3;;;;;;;26.52;61.41309;922.6107;;;;
2023/08/02 15:04:36;;;;;;;1.3;1.2;;;;;;;26.55;61.15527;922.6108;;;;
2023/08/02 15:07:02;;;;;;;2.3;1.1;;;;;;;26.5;62.0957;922.5728;;;;
2023/08/02 15:09:30;;;;;;;1.8;1.2;;;;;;;26.46;60.01758;922.5097;;;;
2023/08/02 15:11:52;;;;;;;2.3;1.2;;;;;;;26.46;59.36719;922.4682;;;;
2023/08/02 15:14:19;;;;;;;2.2;1.4;;;;;;;26.49;59.34766;922.4338;;;;
2023/08/02 15:16:44;;;;;;;1.5;1.2;;;;;;;26.4;59.54883;922.3175;;;;
2023/08/02 15:19:14;;;;;;;1.7;1.2;;;;;;;26.34;59.74316;922.3597;;;;
2023/08/02 15:21:40;;;;;;;1.4;1.3;;;;;;;26.28;59.54395;922.3246;;;;
2023/08/02 15:24:05;;;;;;;1.4;1.1;;;;;;;26.18;60.12207;922.3304;;;;
2023/08/02 15:26:32;;;;;;;2.4;1.3;;;;;;;26.19;60.91797;922.2879;;;;
2023/08/02 15:28:57;;;;;;;1.3;1.2;;;;;;;26.27;61.12988;922.2363;;;;
2023/08/02 15:31:23;;;;;;;1.4;1.1;;;;;;;26.27;60.00586;922.2493;;;;
2023/08/02 15:33:51;;;;;;;1.3;1.2;;;;;;;26.25;60.38086;922.1644;;;;
2023/08/02 15:36:13;;;;;;;1.8;1.3;;;;;;;26.24;61.34961;922.1384;;;;
2023/08/02 15:38:38;;;;;;;1.5;1.4;;;;;;;26.28;60.83398;922.1428;;;;
2023/08/02 15:41:03;;;;;;;2.2;1.5;;;;;;;26.22;61.79785;922.1376;;;;
2023/08/02 15:43:29;;;;;;;3.3;1.7;;;;;;;26.15;61.20703;922.1599;;;;
2023/08/02 15:45:54;;;;;;;1.8;1.2;;;;;;;26.2;61.45117;922.1728;;;;
2023/08/02 15:48:20;;;;;;;1.4;1.3;;;;;;;26.2;61.56934;922.1158;;;;